createdAt,value
2022-10-23T00:00:39.180Z,9.65
2022-10-23T00:03:06.158Z,9.62
2022-10-23T00:05:32.881Z,9.60
2022-10-23T00:08:00.861Z,9.62
2022-10-23T00:10:28.333Z,9.63
2022-10-23T00:12:55.404Z,9.62
2022-10-23T00:15:23.350Z,9.63
2022-10-23T00:17:50.209Z,9.63
2022-10-23T00:20:17.338Z,9.57
2022-10-23T00:22:44.013Z,9.55
2022-10-23T00:25:11.017Z,9.52
2022-10-23T00:27:37.659Z,9.50
2022-10-23T00:30:05.819Z,9.48
2022-10-23T00:35:04.129Z,9.43
2022-10-23T00:37:31.257Z,9.40
2022-10-23T00:39:57.844Z,9.40
2022-10-23T00:42:24.501Z,9.39
2022-10-23T00:44:50.894Z,9.38
2022-10-23T00:47:18.245Z,9.38
2022-10-23T00:49:44.733Z,9.34
2022-10-23T00:52:13.522Z,9.35
2022-10-23T00:54:42.187Z,9.38
2022-10-23T00:57:13.323Z,9.36
2022-10-23T00:59:40.984Z,9.34
2022-10-23T01:02:08.013Z,9.35
2022-10-23T01:04:35.014Z,9.33
2022-10-23T01:07:04.473Z,9.32
2022-10-23T01:09:45.966Z,9.31
2022-10-23T01:13:29.582Z,9.30
2022-10-23T01:16:10.962Z,9.28
2022-10-23T01:18:46.509Z,9.28
2022-10-23T01:21:29.453Z,9.25
2022-10-23T01:24:11.088Z,9.21
2022-10-23T01:26:49.632Z,9.19
2022-10-23T01:29:49.486Z,9.22
2022-10-23T01:32:40.509Z,9.24
2022-10-23T01:43:01.983Z,9.30
2022-10-23T01:45:31.573Z,9.29
2022-10-23T01:48:00.840Z,9.26
2022-10-23T01:50:30.227Z,9.23
2022-10-23T01:52:57.128Z,9.21
2022-10-23T01:55:25.129Z,9.18
2022-10-23T01:57:53.457Z,9.15
2022-10-23T02:00:20.921Z,9.12
2022-10-23T02:02:50.230Z,9.12
2022-10-23T02:05:28.949Z,9.15
2022-10-23T02:07:56.235Z,9.15
2022-10-23T02:10:31.415Z,9.12
2022-10-23T02:13:18.463Z,9.12
2022-10-23T02:15:51.867Z,9.10
2022-10-23T02:18:44.517Z,9.07
2022-10-23T02:21:16.757Z,9.03
2022-10-23T02:24:07.506Z,9.00
2022-10-23T02:26:38.524Z,8.99
2022-10-23T02:29:14.575Z,8.97
2022-10-23T02:31:41.194Z,8.92
2022-10-23T02:34:07.678Z,8.91
2022-10-23T02:36:34.296Z,8.93
2022-10-23T02:39:00.758Z,8.95
2022-10-23T02:41:59.966Z,8.95
2022-10-23T02:44:55.546Z,8.93
2022-10-23T02:48:15.882Z,8.92
2022-10-23T02:50:56.988Z,8.88
2022-10-23T02:53:31.069Z,8.85
2022-10-23T02:56:14.379Z,8.80
2022-10-23T02:59:16.298Z,8.76
2022-10-23T03:01:48.614Z,8.76
2022-10-23T03:04:17.604Z,8.73
2022-10-23T03:06:44.978Z,8.70
2022-10-23T03:09:12.021Z,8.69
2022-10-23T03:11:38.451Z,8.67
2022-10-23T03:14:04.889Z,8.69
2022-10-23T03:16:31.301Z,8.69
2022-10-23T03:18:57.870Z,8.70
2022-10-23T03:21:24.521Z,8.68
2022-10-23T03:23:50.962Z,8.70
2022-10-23T03:26:17.417Z,8.70
2022-10-23T03:28:43.863Z,8.70
2022-10-23T03:31:10.471Z,8.71
2022-10-23T03:33:37.050Z,8.72
2022-10-23T03:36:03.651Z,8.73
2022-10-23T03:38:30.135Z,8.73
2022-10-23T03:40:56.572Z,8.72
2022-10-23T03:43:23.061Z,8.72
2022-10-23T03:45:50.907Z,8.75
2022-10-23T03:48:17.885Z,8.77
2022-10-23T03:50:44.356Z,8.77
2022-10-23T03:53:10.835Z,8.78
2022-10-23T03:55:37.328Z,8.77
2022-10-23T03:58:03.789Z,8.78
2022-10-23T04:00:30.306Z,8.80
2022-10-23T04:02:56.805Z,8.80
2022-10-23T04:05:23.284Z,8.81
2022-10-23T04:07:49.687Z,8.82
2022-10-23T04:10:16.248Z,8.82
2022-10-23T04:12:43.034Z,8.84
2022-10-23T04:15:09.996Z,8.87
2022-10-23T04:17:36.465Z,8.90
2022-10-23T04:20:03.214Z,8.87
2022-10-23T04:22:29.840Z,8.86
2022-10-23T04:24:56.397Z,8.88
2022-10-23T04:27:22.895Z,8.91
2022-10-23T04:29:49.480Z,8.94
2022-10-23T04:32:16.116Z,8.98
2022-10-23T04:34:42.588Z,8.99
2022-10-23T04:37:09.223Z,8.99
2022-10-23T04:39:35.701Z,8.98
2022-10-23T04:42:02.189Z,9.00
2022-10-23T04:44:28.639Z,9.04
2022-10-23T04:46:55.211Z,9.06
2022-10-23T04:49:21.676Z,9.09
2022-10-23T04:51:48.140Z,9.10
2022-10-23T04:54:14.638Z,9.09
2022-10-23T04:56:41.112Z,9.08
2022-10-23T04:59:07.607Z,9.13
2022-10-23T05:01:34.170Z,9.14
2022-10-23T05:04:00.664Z,9.15
2022-10-23T05:06:27.205Z,9.12
2022-10-23T05:08:53.702Z,9.14
2022-10-23T05:15:11.826Z,9.21
2022-10-23T05:17:41.730Z,9.23
2022-10-23T05:20:12.750Z,9.26
2022-10-23T05:22:42.340Z,9.30
2022-10-23T05:25:09.778Z,9.32
2022-10-23T05:27:36.208Z,9.34
2022-10-23T05:30:02.679Z,9.38
2022-10-23T05:32:31.919Z,9.43
2022-10-23T05:35:00.791Z,9.46
2022-10-23T05:37:27.524Z,9.53
2022-10-23T05:39:54.028Z,9.54
2022-10-23T05:42:20.431Z,9.60
2022-10-23T05:44:46.887Z,9.65
2022-10-23T05:47:13.350Z,9.71
2022-10-23T05:49:39.820Z,9.73
2022-10-23T05:52:06.255Z,9.74
2022-10-23T05:54:32.816Z,9.75
2022-10-23T05:56:59.261Z,9.75
2022-10-23T05:59:25.924Z,9.75
2022-10-23T06:01:52.433Z,9.79
2022-10-23T06:04:19.109Z,9.79
2022-10-23T06:06:52.742Z,9.79
2022-10-23T06:29:41.587Z,9.83
2022-10-23T07:12:29.623Z,10.25
2022-10-23T07:39:18.699Z,10.94
2022-10-23T07:50:52.775Z,11.28
2022-10-23T07:57:12.007Z,11.47
2022-10-23T08:03:33.493Z,11.70
2022-10-23T08:10:13.625Z,11.90
2022-10-23T08:16:22.837Z,12.18
2022-10-23T08:23:20.384Z,12.45
2022-10-23T08:29:37.677Z,12.65
2022-10-23T08:32:04.398Z,12.71
2022-10-23T08:34:31.415Z,12.79
2022-10-23T08:37:23.726Z,12.86
2022-10-23T08:48:15.306Z,13.17
2022-10-23T08:50:45.236Z,13.25
2022-10-23T08:53:18.995Z,13.31
2022-10-23T08:56:01.820Z,13.37
2022-10-23T09:06:49.612Z,13.66
2022-10-23T09:14:28.918Z,13.97
2022-10-23T09:17:23.365Z,14.11
2022-10-23T09:20:05.389Z,14.20
2022-10-23T09:22:31.906Z,14.28
2022-10-23T09:24:58.336Z,14.31
2022-10-23T09:27:24.842Z,14.34
2022-10-23T09:29:54.482Z,14.34
2022-10-23T09:32:36.934Z,14.36
2022-10-23T09:35:05.513Z,14.37
2022-10-23T09:37:35.933Z,14.33
2022-10-23T09:40:18.023Z,14.31
2022-10-23T09:43:04.013Z,14.30
2022-10-23T09:45:35.221Z,14.25
2022-10-23T09:48:19.226Z,14.21
2022-10-23T09:51:15.901Z,14.19
2022-10-23T09:54:00.306Z,14.17
2022-10-23T09:56:35.212Z,14.18
2022-10-23T09:59:23.949Z,14.22
2022-10-23T10:02:03.980Z,14.28
2022-10-23T10:04:39.023Z,14.37
2022-10-23T10:07:19.503Z,14.44
2022-10-23T10:09:46.122Z,14.50
2022-10-23T10:12:38.490Z,14.58
2022-10-23T10:15:18.232Z,14.63
2022-10-23T10:21:22.572Z,14.78
2022-10-23T10:24:27.286Z,14.82
2022-10-23T10:27:09.682Z,14.85
2022-10-23T10:33:22.057Z,14.92
2022-10-23T10:36:13.510Z,14.95
2022-10-23T10:38:52.846Z,14.98
2022-10-23T10:41:33.116Z,15.00
2022-10-23T10:44:14.853Z,15.04
2022-10-23T10:46:48.099Z,15.06
2022-10-23T10:49:38.235Z,15.12
2022-10-23T10:52:33.899Z,15.16
2022-10-23T10:55:32.170Z,15.21
2022-10-23T10:58:23.449Z,15.27
2022-10-23T11:00:55.810Z,15.29
2022-10-23T11:03:39.820Z,15.33
2022-10-23T11:06:14.902Z,15.39
2022-10-23T11:08:56.249Z,15.41
2022-10-23T11:11:34.794Z,15.49
2022-10-23T11:14:02.247Z,15.60
2022-10-23T11:16:36.314Z,15.66
2022-10-23T11:19:24.871Z,15.65
2022-10-23T11:22:05.097Z,15.65
2022-10-23T11:24:58.498Z,15.66
2022-10-23T11:27:54.377Z,15.69
2022-10-23T11:30:31.007Z,15.80
2022-10-23T11:33:19.166Z,15.90
2022-10-23T11:35:57.370Z,16.06
2022-10-23T11:38:36.770Z,16.21
2022-10-23T11:41:07.022Z,16.39
2022-10-23T11:43:46.517Z,16.54
2022-10-23T11:46:15.848Z,16.65
2022-10-23T11:48:44.255Z,16.77
2022-10-23T11:51:25.955Z,16.87
2022-10-23T11:53:52.450Z,17.02
2022-10-23T11:56:21.820Z,17.07
2022-10-23T11:58:57.304Z,17.14
2022-10-23T12:01:45.588Z,17.25
2022-10-23T12:04:15.143Z,17.33
2022-10-23T12:06:45.466Z,17.41
2022-10-23T12:09:30.042Z,17.48
2022-10-23T12:12:08.717Z,17.45
2022-10-23T12:14:40.967Z,17.46
2022-10-23T12:17:22.353Z,17.43
2022-10-23T12:20:09.130Z,17.49
2022-10-23T12:23:05.948Z,17.48
2022-10-23T12:26:01.425Z,17.51
2022-10-23T12:28:44.747Z,17.53
2022-10-23T12:31:47.791Z,17.59
2022-10-23T12:34:51.578Z,17.64
2022-10-23T12:37:51.526Z,17.61
2022-10-23T12:40:18.022Z,17.60
2022-10-23T12:42:53.954Z,17.56
2022-10-23T12:45:27.417Z,17.58
2022-10-23T12:47:54.613Z,17.63
2022-10-23T12:50:25.562Z,17.66
2022-10-23T12:53:03.522Z,17.70
2022-10-23T12:56:05.733Z,17.69
2022-10-23T12:58:34.626Z,17.71
2022-10-23T13:01:04.291Z,17.72
2022-10-23T13:03:33.158Z,17.75
2022-10-23T13:06:04.126Z,17.82
2022-10-23T13:08:41.778Z,17.81
2022-10-23T13:11:12.111Z,17.83
2022-10-23T13:13:40.573Z,17.84
2022-10-23T13:16:15.142Z,17.87
2022-10-23T13:18:42.336Z,17.85
2022-10-23T13:21:17.751Z,17.85
2022-10-23T13:23:44.447Z,17.89
2022-10-23T13:26:34.141Z,17.94
2022-10-23T13:29:08.752Z,17.98
2022-10-23T13:31:36.246Z,18.00
2022-10-23T13:34:02.591Z,18.03
2022-10-23T13:36:35.880Z,18.08
2022-10-23T13:39:14.774Z,18.09
2022-10-23T13:41:43.677Z,18.11
2022-10-23T13:44:17.997Z,18.16
2022-10-23T13:46:45.039Z,18.24
2022-10-23T13:49:11.582Z,18.24
2022-10-23T13:51:55.599Z,18.25
2022-10-23T13:54:25.947Z,18.23
2022-10-23T13:56:54.131Z,18.21
2022-10-23T13:59:21.119Z,18.16
2022-10-23T14:01:49.319Z,18.11
2022-10-23T14:04:17.391Z,18.12
2022-10-23T14:06:44.459Z,18.13
2022-10-23T14:09:16.171Z,18.08
2022-10-23T14:11:42.933Z,18.03
2022-10-23T14:14:09.581Z,18.02
2022-10-23T14:16:36.211Z,18.04
2022-10-23T14:19:03.013Z,18.02
2022-10-23T14:21:29.452Z,18.00
2022-10-23T14:23:55.959Z,18.05
2022-10-23T14:26:25.613Z,18.09
2022-10-23T14:28:53.840Z,18.15
2022-10-23T14:31:20.585Z,18.30
2022-10-23T14:33:52.161Z,18.36
2022-10-23T14:38:54.807Z,18.38
2022-10-23T14:41:22.118Z,18.32
2022-10-23T14:43:48.585Z,18.22
2022-10-23T14:46:20.453Z,18.12
2022-10-23T14:48:50.962Z,18.06
2022-10-23T14:51:27.514Z,17.99
2022-10-23T14:53:58.851Z,17.98
2022-10-23T14:56:26.032Z,17.97
2022-10-23T14:58:52.597Z,17.92
2022-10-23T15:01:19.572Z,17.88
2022-10-23T15:03:46.245Z,17.86
2022-10-23T15:06:16.041Z,17.83
2022-10-23T15:08:44.761Z,17.78
2022-10-23T15:11:12.668Z,17.70
2022-10-23T15:13:42.055Z,17.64
2022-10-23T15:16:13.424Z,17.58
2022-10-23T15:18:40.101Z,17.51
2022-10-23T15:21:08.355Z,17.45
2022-10-23T15:23:37.909Z,17.39
2022-10-23T15:26:11.603Z,17.30
2022-10-23T15:28:38.457Z,17.21
2022-10-23T15:31:05.988Z,17.13
2022-10-23T15:33:32.472Z,17.07
2022-10-23T15:35:58.902Z,17.01
2022-10-23T15:38:26.103Z,16.95
2022-10-23T15:40:58.367Z,16.88
2022-10-23T15:43:24.876Z,16.83
2022-10-23T15:45:51.351Z,16.79
2022-10-23T15:48:17.836Z,16.72
2022-10-23T15:50:44.366Z,16.69
2022-10-23T15:53:10.848Z,16.68
2022-10-23T15:55:38.794Z,16.63
2022-10-23T15:58:05.922Z,16.61
2022-10-23T16:00:35.904Z,16.64
2022-10-23T16:03:02.709Z,16.60
2022-10-23T16:05:29.249Z,16.58
2022-10-23T16:07:55.724Z,16.56
2022-10-23T16:10:26.118Z,16.51
2022-10-23T16:12:53.297Z,16.46
2022-10-23T16:15:20.011Z,16.45
2022-10-23T16:17:46.697Z,16.41
2022-10-23T16:20:13.227Z,16.38
2022-10-23T16:22:42.684Z,16.35
2022-10-23T16:25:11.391Z,16.37
2022-10-23T16:27:37.861Z,16.38
2022-10-23T16:30:07.596Z,16.38
2022-10-23T16:32:34.057Z,16.35
2022-10-23T16:35:01.142Z,16.31
2022-10-23T16:37:27.708Z,16.30
2022-10-23T16:39:54.274Z,16.27
2022-10-23T16:42:20.781Z,16.25
2022-10-23T16:44:48.272Z,16.22
2022-10-23T16:47:14.784Z,16.25
2022-10-23T16:49:41.404Z,16.24
2022-10-23T16:52:07.925Z,16.21
2022-10-23T16:54:34.543Z,16.21
2022-10-23T16:57:01.049Z,16.16
2022-10-23T16:59:27.587Z,16.14
2022-10-23T17:01:54.249Z,16.13
2022-10-23T17:04:20.826Z,16.11
2022-10-23T17:20:40.455Z,15.98
2022-10-23T17:23:06.945Z,15.93
2022-10-23T17:25:33.787Z,15.90
2022-10-23T17:33:05.633Z,15.85
2022-10-23T17:43:47.032Z,15.78
2022-10-23T17:57:57.897Z,15.79
2022-10-23T18:16:03.871Z,15.84
2022-10-23T18:18:30.639Z,15.88
2022-10-23T18:23:52.866Z,15.93
2022-10-23T18:41:54.392Z,16.23
2022-10-23T18:48:28.576Z,16.29
2022-10-23T18:55:28.588Z,16.34
2022-10-23T19:05:45.113Z,16.40
2022-10-23T19:25:48.449Z,16.23
2022-10-23T19:28:15.122Z,16.22
2022-10-23T19:30:41.609Z,16.20
2022-10-23T19:33:42.680Z,16.22
2022-10-23T19:40:49.929Z,16.09
2022-10-23T20:19:07.846Z,15.39
2022-10-23T20:22:17.736Z,15.34
2022-10-23T20:24:44.385Z,15.30
2022-10-23T20:27:13.693Z,15.28
2022-10-23T20:33:44.112Z,15.20
2022-10-23T20:36:32.277Z,15.18
2022-10-23T20:39:01.483Z,15.13
2022-10-23T20:41:28.967Z,15.07
2022-10-23T20:43:56.285Z,14.99
2022-10-23T20:58:44.516Z,14.73
2022-10-23T21:09:30.811Z,14.69
2022-10-23T21:11:58.288Z,14.64
2022-10-23T21:14:24.889Z,14.60
2022-10-23T21:16:51.840Z,14.58
2022-10-23T21:59:37.659Z,14.51
2022-10-23T22:06:30.552Z,14.53
2022-10-23T22:32:45.972Z,14.45
2022-10-23T22:47:15.428Z,14.48
2022-10-23T23:07:56.406Z,14.54
2022-10-23T23:10:23.029Z,14.56
2022-10-23T23:12:52.746Z,14.55
2022-10-23T23:23:30.759Z,14.40
2022-10-23T23:49:52.671Z,14.30
2022-10-23T23:56:46.525Z,14.46
2022-10-23T23:59:12.965Z,14.50
